Time;durP1;ratioP1;P1;durP2;ratioP2;P2;SDS_P1;SDS_P2;PMS_P1;PMS_P2;Temp;Humidity;BMP_temperature;BMP_pressure;BME280_temperature;BME280_humidity;BME280_pressure;Samples;Min_cycle;Max_cycle;Signal;HPM_P1;HPM_P2
2022/11/02 00:04:52;;;;;;;21.80;13.80;;;;;;;14.28;64.53;99412.34;225627;1245;140124;-66
2022/11/02 00:09:55;;;;;;;22.90;15.10;;;;;;;14.32;64.52;99408.30;225638;1244;139188;-63
2022/11/02 00:14:58;;;;;;;20.70;14.70;;;;;;;14.36;64.51;99407.12;226646;1237;139957;-65
2022/11/02 00:20:02;;;;;;;22.00;14.40;;;;;;;14.41;64.64;99407.26;225595;1244;139578;-64
2022/11/02 00:25:07;;;;;;;22.10;13.90;;;;;;;14.40;64.29;99396.50;225335;1248;139302;-63
2022/11/02 00:30:10;;;;;;;22.20;13.20;;;;;;;14.38;64.43;99396.96;225327;1247;139734;-63
2022/11/02 00:35:15;;;;;;;19.70;13.40;;;;;;;14.38;64.49;99403.05;225672;1245;139777;-62
2022/11/02 00:40:18;;;;;;;20.50;13.80;;;;;;;14.42;64.46;99399.75;226528;1237;140823;-64
2022/11/02 00:45:21;;;;;;;20.80;14.00;;;;;;;14.44;64.41;99403.20;225555;1237;140370;-63
2022/11/02 00:50:24;;;;;;;24.20;14.60;;;;;;;14.43;64.47;99402.54;225420;1248;139876;-65
2022/11/02 00:55:27;;;;;;;21.40;14.20;;;;;;;14.40;64.42;99404.88;225638;1237;140610;-63
2022/11/02 01:00:35;;;;;;;22.00;14.30;;;;;;;14.37;64.49;99409.70;225655;1241;139373;-66
2022/11/02 01:05:38;;;;;;;22.20;14.70;;;;;;;14.37;64.54;99404.94;225238;1246;140166;-62
2022/11/02 01:10:41;;;;;;;21.50;13.80;;;;;;;14.35;64.38;99412.41;226463;1234;140411;-61
2022/11/02 01:15:51;;;;;;;20.40;13.30;;;;;;;14.32;64.50;99405.50;225531;1240;139699;-61
2022/11/02 01:20:57;;;;;;;20.90;13.50;;;;;;;14.34;64.47;99408.52;225529;1237;140186;-61
2022/11/02 01:26:05;;;;;;;21.30;14.60;;;;;;;14.37;64.63;99406.70;225711;1244;139958;-62
2022/11/02 01:31:10;;;;;;;19.80;14.60;;;;;;;14.39;64.68;99397.84;226707;1238;139662;-64
2022/11/02 01:36:15;;;;;;;20.20;14.60;;;;;;;14.42;64.87;99401.00;225566;1245;139390;-60
2022/11/02 01:41:18;;;;;;;22.50;13.90;;;;;;;14.43;64.84;99399.69;226594;1229;139225;-65
2022/11/02 01:46:46;;;;;;;19.60;14.00;;;;;;;14.40;64.81;99401.45;225583;1251;139005;-65
2022/11/02 01:52:03;;;;;;;18.40;13.00;;;;;;;14.39;64.83;99403.17;225361;1246;140868;-65
2022/11/02 01:57:13;;;;;;;17.50;12.80;;;;;;;14.42;64.94;99400.29;225622;1246;140708;-61
2022/11/02 02:08:35;;;;;;;22.10;12.90;;;;;;;14.50;64.93;99406.69;220970;1227;970758;-64
2022/11/02 02:13:37;;;;;;;19.70;13.10;;;;;;;14.48;64.97;99408.58;223341;1257;139775;-62
2022/11/02 02:18:50;;;;;;;21.40;11.10;;;;;;;14.43;64.87;99412.70;223354;1260;140166;-64
2022/11/02 02:24:05;;;;;;;19.70;12.60;;;;;;;14.39;65.27;99414.80;223358;1260;139698;-61
2022/11/02 02:29:13;;;;;;;19.00;12.80;;;;;;;14.40;65.12;99414.50;223335;1257;141300;-65
2022/11/02 02:34:23;;;;;;;18.50;13.40;;;;;;;14.45;65.12;99414.73;223323;1260;139773;-61
2022/11/02 02:39:32;;;;;;;23.60;14.60;;;;;;;14.44;65.25;99415.29;223232;1257;139397;-65
2022/11/02 02:44:39;;;;;;;20.00;13.90;;;;;;;14.44;65.04;99412.98;223271;1253;139889;-69
2022/11/02 02:49:50;;;;;;;20.10;14.40;;;;;;;14.43;64.94;99414.98;224025;1247;140170;-63
2022/11/02 02:54:57;;;;;;;18.80;13.90;;;;;;;14.41;64.97;99424.63;223403;1253;139657;-65
2022/11/02 03:00:00;;;;;;;19.60;13.60;;;;;;;14.34;64.90;99426.88;223278;1254;140252;-65
2022/11/02 03:05:23;;;;;;;22.70;14.60;;;;;;;14.33;64.93;99430.16;223367;1261;140423;-63
2022/11/02 03:10:33;;;;;;;20.90;13.70;;;;;;;14.38;65.13;99434.66;223314;1253;140097;-62
2022/11/02 03:16:00;;;;;;;21.50;13.40;;;;;;;14.41;65.03;99440.70;223202;1253;141048;-64
2022/11/02 03:21:19;;;;;;;21.30;13.60;;;;;;;14.37;64.80;99445.08;224001;1250;139522;-64
2022/11/02 03:26:30;;;;;;;19.20;12.90;;;;;;;14.30;64.56;99442.02;223255;1257;139783;-65
2022/11/02 03:31:53;;;;;;;19.80;13.40;;;;;;;14.24;64.69;99444.38;223173;1253;140029;-68
2022/11/02 03:37:06;;;;;;;16.30;12.50;;;;;;;14.21;64.87;99446.27;223203;1255;140037;-69
2022/11/02 03:42:22;;;;;;;21.50;13.50;;;;;;;14.12;64.57;99444.38;223253;1257;139471;-67
2022/11/02 03:47:29;;;;;;;22.80;12.80;;;;;;;14.11;64.83;99447.13;223738;1249;141592;-62
2022/11/02 03:52:38;;;;;;;20.50;12.40;;;;;;;14.12;64.89;99447.38;223976;1250;139791;-64
2022/11/02 03:57:48;;;;;;;24.00;13.80;;;;;;;14.11;64.86;99452.48;223208;1253;139552;-61
2022/11/02 04:02:57;;;;;;;20.50;13.00;;;;;;;14.11;64.85;99453.53;223202;1255;140452;-62
2022/11/02 04:29:29;;;;;;;19.80;14.30;;;;;;;13.87;65.35;99458.02;224169;1250;140055;-64
2022/11/02 04:34:32;;;;;;;22.00;14.60;;;;;;;13.89;65.35;99460.40;223271;1249;140219;-66
2022/11/02 04:39:36;;;;;;;20.50;15.20;;;;;;;13.90;65.76;99466.21;223347;1252;139713;-66
2022/11/02 04:44:39;;;;;;;22.20;14.30;;;;;;;13.88;65.55;99467.57;224056;1247;139960;-64
2022/11/02 04:49:49;;;;;;;22.80;14.20;;;;;;;13.88;65.57;99473.50;223307;1253;139569;-64
2022/11/02 04:54:53;;;;;;;20.90;13.30;;;;;;;13.81;65.56;99475.73;223296;1255;140117;-64
2022/11/02 04:59:56;;;;;;;20.50;13.80;;;;;;;13.73;65.28;99476.48;223343;1258;140231;-66
2022/11/02 05:04:59;;;;;;;21.60;14.20;;;;;;;13.66;65.43;99476.98;223362;1251;140616;-67
2022/11/02 05:10:02;;;;;;;22.80;13.00;;;;;;;13.64;65.62;99476.02;223209;1256;140435;-69
2022/11/02 05:15:08;;;;;;;19.00;13.90;;;;;;;13.66;65.76;99474.24;223198;1257;140068;-66
2022/11/02 05:20:12;;;;;;;21.50;13.60;;;;;;;13.72;66.02;99481.20;223879;1250;139510;-66
2022/11/02 05:25:15;;;;;;;18.30;13.50;;;;;;;13.73;65.80;99480.79;223225;1257;139558;-66
2022/11/02 05:30:18;;;;;;;19.60;14.00;;;;;;;13.73;65.94;99486.67;224019;1247;141266;-67
2022/11/02 05:35:23;;;;;;;43.40;29.70;;;;;;;13.71;65.92;99493.00;222715;1249;139755;-64
2022/11/02 05:40:30;;;;;;;27.50;13.80;;;;;;;13.69;66.16;99493.67;221127;1248;139998;-64
2022/11/02 05:45:35;;;;;;;18.80;12.20;;;;;;;13.68;66.21;99495.91;221181;1250;140006;-65
2022/11/02 05:50:39;;;;;;;23.90;13.10;;;;;;;13.72;66.15;99505.24;221049;1250;140258;-63
2022/11/02 05:55:42;;;;;;;105.00;66.50;;;;;;;13.74;66.43;99507.42;220924;1250;139410;-64
2022/11/02 06:00:48;;;;;;;31.20;18.70;;;;;;;13.76;66.41;99511.77;221082;1249;140070;-64
2022/11/02 06:06:02;;;;;;;25.00;17.30;;;;;;;13.73;66.43;99509.27;220877;1249;142323;-66
2022/11/02 06:11:10;;;;;;;36.90;24.60;;;;;;;13.70;66.65;99514.66;221140;1249;140249;-67
2022/11/02 06:16:14;;;;;;;30.80;20.20;;;;;;;13.69;66.68;99510.25;221194;1250;139718;-65
2022/11/02 06:21:25;;;;;;;26.00;17.40;;;;;;;13.73;66.70;99514.63;220965;1248;140943;-68
2022/11/02 06:26:28;;;;;;;29.50;17.10;;;;;;;13.76;66.56;99517.45;220901;1254;139762;-64
2022/11/02 06:31:32;;;;;;;48.70;31.70;;;;;;;13.81;66.87;99524.30;220943;1249;140260;-64
2022/11/02 06:36:36;;;;;;;32.30;19.10;;;;;;;13.79;66.82;99523.34;220996;1250;140505;-67
2022/11/02 06:41:40;;;;;;;33.80;19.50;;;;;;;13.77;66.86;99529.19;221323;1249;140037;-66
2022/11/02 06:46:44;;;;;;;27.80;18.70;;;;;;;13.75;66.91;99531.46;221163;1250;139741;-61
2022/11/02 06:51:51;;;;;;;29.80;18.80;;;;;;;13.71;67.10;99528.69;220991;1247;139490;-64
2022/11/02 06:56:55;;;;;;;32.10;18.50;;;;;;;13.73;67.07;99527.14;221278;1240;140888;-69
2022/11/02 07:01:58;;;;;;;30.70;19.10;;;;;;;13.80;67.21;99525.04;221351;1252;139674;-67
2022/11/02 07:07:02;;;;;;;34.20;19.10;;;;;;;13.87;67.13;99528.66;221216;1247;139377;-68
2022/11/02 07:12:06;;;;;;;30.80;18.90;;;;;;;13.91;67.52;99533.43;220974;1250;140849;-64
2022/11/02 07:17:09;;;;;;;31.30;19.30;;;;;;;13.95;67.24;99530.60;221211;1240;139765;-63
2022/11/02 07:22:13;;;;;;;45.00;30.90;;;;;;;13.95;67.30;99526.02;220891;1250;141121;-62
2022/11/02 07:27:16;;;;;;;34.00;19.10;;;;;;;13.94;67.29;99532.11;221089;1250;140152;-65
2022/11/02 07:32:20;;;;;;;29.90;18.30;;;;;;;14.00;67.52;99529.40;221176;1249;140025;-66
2022/11/02 07:37:23;;;;;;;30.70;19.70;;;;;;;14.08;67.36;99516.89;221244;1250;140831;-65
2022/11/02 07:42:26;;;;;;;39.20;24.50;;;;;;;14.14;67.32;99516.46;222683;1247;139661;-65
2022/11/02 07:47:32;;;;;;;35.50;20.20;;;;;;;14.14;67.68;99516.65;223273;1257;139649;-64
2022/11/02 07:52:35;;;;;;;29.80;18.70;;;;;;;14.24;67.55;99512.77;223967;1251;139649;-62
2022/11/02 07:57:38;;;;;;;34.30;19.50;;;;;;;14.32;67.45;99511.48;223312;1257;139628;-66
2022/11/02 08:02:41;;;;;;;28.60;18.90;;;;;;;14.42;67.36;99515.63;224073;1240;140433;-64
2022/11/02 08:07:44;;;;;;;32.20;19.30;;;;;;;14.57;67.24;99517.05;223173;1248;139758;-65
2022/11/02 08:12:48;;;;;;;31.10;19.00;;;;;;;14.70;67.13;99518.11;223973;1249;140220;-67
2022/11/02 08:18:01;;;;;;;30.10;17.50;;;;;;;14.83;66.98;99510.73;223200;1252;139256;-63
2022/11/02 08:23:06;;;;;;;27.90;17.10;;;;;;;14.96;66.97;99516.06;224139;1240;139795;-64
2022/11/02 08:28:12;;;;;;;27.90;17.10;;;;;;;15.04;66.70;99515.45;223135;1257;140805;-62
2022/11/02 08:33:17;;;;;;;29.40;17.10;;;;;;;15.14;66.50;99512.10;223264;1254;140908;-64
2022/11/02 08:38:23;;;;;;;27.80;15.60;;;;;;;15.31;66.48;99509.54;223246;1251;140516;-62
2022/11/02 08:43:26;;;;;;;29.00;16.90;;;;;;;15.46;66.23;99508.98;223190;1250;140050;-66
2022/11/02 08:48:29;;;;;;;28.40;16.20;;;;;;;15.56;66.04;99503.42;223356;1257;140267;-61
2022/11/02 08:53:32;;;;;;;27.70;16.50;;;;;;;15.69;65.93;99501.90;223195;1248;139455;-64
2022/11/02 08:58:35;;;;;;;24.10;14.80;;;;;;;15.81;65.80;99498.52;223185;1257;140038;-62
2022/11/02 09:03:38;;;;;;;20.70;14.80;;;;;;;15.89;65.53;99497.73;223160;1256;140298;-61
2022/11/02 09:08:41;;;;;;;25.30;13.80;;;;;;;15.95;65.16;99493.50;223277;1257;140499;-60
2022/11/02 09:13:44;;;;;;;23.20;14.80;;;;;;;16.07;65.16;99496.13;223153;1254;140012;-62
2022/11/02 09:18:47;;;;;;;42.20;28.20;;;;;;;16.21;65.09;99496.87;223296;1257;139981;-63
2022/11/02 09:23:50;;;;;;;29.20;16.90;;;;;;;16.37;65.09;99495.45;223979;1247;140249;-60
2022/11/02 09:28:53;;;;;;;30.10;17.00;;;;;;;16.45;64.68;99489.46;223463;1251;140294;-65
2022/11/02 09:33:56;;;;;;;24.10;15.80;;;;;;;16.48;64.28;99490.46;223238;1249;140124;-64
2022/11/02 09:38:59;;;;;;;30.30;15.40;;;;;;;16.53;64.27;99489.86;223257;1257;140843;-64
2022/11/02 09:44:20;;;;;;;42.20;26.80;;;;;;;16.67;64.59;99483.89;223872;1247;140132;-65
2022/11/02 09:49:25;;;;;;;34.60;15.40;;;;;;;16.85;64.21;99482.65;223049;1256;139772;-63
2022/11/02 09:54:39;;;;;;;24.70;15.60;;;;;;;17.07;64.16;99476.41;223240;1247;140478;-63
2022/11/02 09:59:42;;;;;;;18.70;11.40;;;;;;;17.27;63.93;99472.56;223382;1256;140161;-62
2022/11/02 10:05:18;;;;;;;21.00;11.40;;;;;;;17.40;63.46;99472.59;223267;1249;139463;-62
2022/11/02 10:10:44;;;;;;;16.20;7.80;;;;;;;17.54;63.07;99471.61;223342;1251;140146;-64
2022/11/02 10:15:52;;;;;;;16.40;8.10;;;;;;;17.74;62.37;99466.71;223301;1239;139853;-67
2022/11/02 10:21:05;;;;;;;16.20;8.80;;;;;;;17.86;61.76;99463.73;224039;1240;139769;-63
2022/11/02 10:26:18;;;;;;;14.30;9.00;;;;;;;17.96;61.25;99465.73;223123;1250;139937;-62
2022/11/02 10:31:32;;;;;;;150.50;114.60;;;;;;;18.05;60.63;99456.55;223247;1257;140889;-64
2022/11/02 10:36:54;;;;;;;23.80;12.60;;;;;;;18.15;60.38;99458.13;223146;1250;140418;-63
2022/11/02 10:42:09;;;;;;;16.50;9.50;;;;;;;18.23;60.11;99451.89;223304;1254;140786;-63
2022/11/02 10:47:17;;;;;;;17.70;9.50;;;;;;;18.36;60.01;99453.25;223319;1257;140164;-65
2022/11/02 10:52:20;;;;;;;42.30;31.50;;;;;;;18.40;59.27;99454.52;223995;1247;139995;-68
2022/11/02 10:57:24;;;;;;;21.20;11.20;;;;;;;18.42;58.98;99451.29;223194;1254;139543;-62
2022/11/02 11:02:28;;;;;;;19.80;10.90;;;;;;;18.45;58.85;99446.60;223200;1249;139826;-67
2022/11/02 11:07:33;;;;;;;41.00;25.00;;;;;;;18.52;59.22;99441.63;223201;1256;139725;-63
2022/11/02 11:12:39;;;;;;;22.00;13.20;;;;;;;18.68;58.87;99447.05;223036;1256;139748;-63
2022/11/02 11:17:43;;;;;;;13.00;8.20;;;;;;;18.75;58.43;99442.00;223214;1257;139218;-63
2022/11/02 11:23:24;;;;;;;18.10;8.90;;;;;;;18.83;57.95;99438.37;224051;1242;139435;-66
2022/11/02 11:28:29;;;;;;;28.40;14.30;;;;;;;18.94;57.81;99438.81;223176;1247;139835;-65
2022/11/02 11:33:40;;;;;;;9.10;4.50;;;;;;;18.94;57.02;99433.57;223278;1250;140262;-62
2022/11/02 11:38:47;;;;;;;13.70;4.70;;;;;;;18.98;56.55;99427.98;223120;1248;139290;-63
2022/11/02 11:43:51;;;;;;;12.60;4.30;;;;;;;19.13;55.77;99427.20;223290;1251;139616;-62
2022/11/02 11:48:58;;;;;;;6.30;3.40;;;;;;;19.26;55.15;99426.90;223306;1257;139457;-63
2022/11/02 11:54:23;;;;;;;5.80;3.50;;;;;;;19.18;54.35;99429.02;223095;1256;139432;-65
2022/11/02 11:59:47;;;;;;;8.00;4.30;;;;;;;19.03;53.79;99430.20;223365;1261;139249;-64
2022/11/02 12:05:00;;;;;;;6.90;3.40;;;;;;;18.91;53.43;99427.76;223186;1257;139685;-62
2022/11/02 12:10:09;;;;;;;8.80;3.60;;;;;;;18.75;53.11;99435.86;223178;1257;139695;-62
2022/11/02 12:15:43;;;;;;;6.20;3.60;;;;;;;18.57;52.85;99428.40;223145;1250;139857;-64
2022/11/02 12:20:48;;;;;;;8.60;3.70;;;;;;;18.52;52.86;99424.25;223128;1256;139783;-63
2022/11/02 12:26:01;;;;;;;7.00;3.80;;;;;;;18.52;52.76;99424.77;223128;1256;139660;-66
2022/11/02 12:31:10;;;;;;;;;;;;;;;18.60;52.63;99423.14;223210;1254;139424;-64
2022/11/02 12:36:31;;;;;;;18.50;5.40;;;;;;;18.64;52.47;99415.22;223345;1256;126097;-67
2022/11/02 12:41:40;;;;;;;9.10;3.50;;;;;;;18.74;52.82;99407.31;223300;1257;140060;-64
2022/11/02 12:47:03;;;;;;;30.40;19.90;;;;;;;18.85;52.54;99407.39;223075;1249;139899;-61
2022/11/02 12:52:15;;;;;;;5.60;3.60;;;;;;;18.88;51.87;99404.44;223246;1251;139761;-64
2022/11/02 12:57:22;;;;;;;6.20;3.20;;;;;;;18.89;51.69;99404.70;223952;1248;140487;-64
2022/11/02 13:02:31;;;;;;;6.10;3.00;;;;;;;18.80;51.12;99407.36;223212;1256;139955;-61
2022/11/02 13:07:42;;;;;;;13.90;10.10;;;;;;;18.74;51.00;99410.20;223222;1256;139423;-63
2022/11/02 13:12:49;;;;;;;23.60;14.70;;;;;;;18.75;50.90;99408.02;223285;1256;139651;-61
2022/11/02 13:17:57;;;;;;;5.90;4.10;;;;;;;18.79;50.92;99401.47;223976;1256;141396;-66
2022/11/02 13:23:33;;;;;;;9.40;3.50;;;;;;;18.83;50.64;99403.33;223968;1249;139302;-64
2022/11/02 13:28:51;;;;;;;11.00;3.70;;;;;;;18.83;50.49;99401.09;223936;1250;140524;-65
2022/11/02 13:33:59;;;;;;;8.70;3.80;;;;;;;18.83;50.18;99404.72;223189;1257;140109;-64
2022/11/02 13:39:04;;;;;;;7.10;3.80;;;;;;;18.73;49.88;99411.00;224008;1249;139366;-62
2022/11/02 13:44:26;;;;;;;7.90;4.10;;;;;;;18.61;50.05;99414.39;223952;1247;139407;-63
2022/11/02 13:49:35;;;;;;;7.70;3.70;;;;;;;18.57;50.14;99408.31;223156;1257;139912;-64
2022/11/02 13:54:50;;;;;;;9.80;4.00;;;;;;;18.53;50.05;99408.84;223947;1247;139799;-62
2022/11/02 13:59:58;;;;;;;7.40;3.70;;;;;;;18.49;50.10;99409.16;223902;1248;139414;-65
2022/11/02 14:05:01;;;;;;;7.50;4.00;;;;;;;18.43;50.04;99410.62;223262;1247;140841;-63
2022/11/02 14:10:15;;;;;;;11.70;3.70;;;;;;;18.40;49.96;99413.97;223248;1257;139510;-64
2022/11/02 14:15:18;;;;;;;8.30;4.00;;;;;;;18.37;49.95;99415.79;223259;1252;139460;-64
2022/11/02 14:20:45;;;;;;;9.10;4.50;;;;;;;18.34;49.87;99418.95;223222;1248;139801;-63
2022/11/02 14:25:53;;;;;;;8.40;4.20;;;;;;;18.32;50.03;99418.63;223145;1256;140720;-65
2022/11/02 14:31:02;;;;;;;8.20;4.40;;;;;;;18.29;50.02;99420.88;223183;1249;139149;-61
2022/11/02 14:36:17;;;;;;;14.30;4.40;;;;;;;18.29;50.15;99419.98;223182;1256;139733;-62
2022/11/02 14:41:38;;;;;;;10.30;5.60;;;;;;;18.26;50.55;99423.25;224051;1250;139659;-61
2022/11/02 14:46:47;;;;;;;10.10;5.40;;;;;;;18.18;50.98;99430.38;223153;1253;140196;-62
2022/11/02 14:52:13;;;;;;;11.70;5.70;;;;;;;18.11;51.41;99429.41;223073;1255;139354;-65
2022/11/02 14:57:24;;;;;;;;;;;;;;;18.04;51.75;99427.72;223838;1249;139957;-65
2022/11/02 15:02:31;;;;;;;13.50;8.90;;;;;;;17.92;51.98;99424.98;223164;1254;125619;-64
2022/11/02 15:07:40;;;;;;;10.60;5.20;;;;;;;17.82;52.35;99426.94;223240;1247;140304;-61
2022/11/02 15:12:45;;;;;;;9.10;4.90;;;;;;;17.72;52.44;99426.10;223217;1256;139707;-64
2022/11/02 15:17:57;;;;;;;10.20;5.40;;;;;;;17.62;52.60;99432.89;223435;1257;139530;-61
2022/11/02 15:23:17;;;;;;;7.90;4.30;;;;;;;17.50;52.79;99434.61;224082;1246;139973;-65
2022/11/02 15:28:33;;;;;;;14.40;4.90;;;;;;;17.39;53.07;99440.27;223336;1257;139215;-63
2022/11/02 15:33:41;;;;;;;10.50;5.40;;;;;;;17.30;53.37;99446.02;223158;1247;140100;-65
2022/11/02 15:38:50;;;;;;;12.20;5.40;;;;;;;17.24;53.60;99450.45;223187;1250;140032;-63
2022/11/02 15:44:06;;;;;;;11.10;7.20;;;;;;;17.20;53.96;99452.02;223209;1256;139830;-67
2022/11/02 15:49:28;;;;;;;7.60;5.30;;;;;;;17.17;54.07;99459.40;222995;1256;139713;-64
2022/11/02 15:54:48;;;;;;;12.50;6.50;;;;;;;17.13;54.14;99462.11;223275;1253;139443;-66
2022/11/02 16:00:12;;;;;;;10.80;6.00;;;;;;;17.08;54.30;99469.14;223313;1253;141100;-66
2022/11/02 16:05:25;;;;;;;12.50;6.50;;;;;;;17.03;54.45;99475.63;223342;1250;140966;-63
2022/11/02 16:10:29;;;;;;;10.90;6.50;;;;;;;16.98;54.53;99480.73;223338;1251;139920;-66
2022/11/02 16:15:33;;;;;;;18.40;13.10;;;;;;;16.94;54.72;99488.21;223265;1250;140751;-65
2022/11/02 16:20:38;;;;;;;14.60;7.30;;;;;;;16.90;54.99;99495.91;223350;1247;140164;-67
2022/11/02 16:25:45;;;;;;;20.90;13.10;;;;;;;16.86;54.96;99500.92;223973;1249;140102;-63
2022/11/02 16:31:20;;;;;;;12.80;7.30;;;;;;;16.78;55.06;99501.84;223372;1253;142039;-66
2022/11/02 16:36:26;;;;;;;125.30;45.70;;;;;;;16.69;55.26;99503.98;223381;1251;140524;-62
2022/11/02 16:41:31;;;;;;;48.30;21.20;;;;;;;16.65;55.41;99511.69;223473;1251;141256;-66
2022/11/02 16:46:48;;;;;;;72.20;53.40;;;;;;;16.59;55.57;99521.12;223289;1247;139989;-68
2022/11/02 16:52:05;;;;;;;12.40;7.70;;;;;;;16.48;55.56;99518.88;223281;1247;139731;-65
2022/11/02 16:57:11;;;;;;;11.30;7.00;;;;;;;16.40;55.68;99524.24;223267;1253;139822;-67
2022/11/02 17:02:14;;;;;;;12.80;7.30;;;;;;;16.32;55.75;99531.13;224000;1247;141305;-64
2022/11/02 17:07:34;;;;;;;39.20;26.10;;;;;;;16.23;55.96;99535.36;223249;1257;140041;-69
2022/11/02 17:12:42;;;;;;;12.50;7.70;;;;;;;16.16;56.00;99535.58;223166;1250;141791;-67
2022/11/02 17:17:45;;;;;;;15.90;9.30;;;;;;;16.10;56.01;99537.81;223316;1258;139744;-64
2022/11/02 17:23:02;;;;;;;12.80;7.30;;;;;;;16.03;56.29;99542.12;223165;1248;139990;-65
2022/11/02 17:28:33;;;;;;;13.80;7.80;;;;;;;15.96;56.43;99549.48;223891;1250;141042;-67
2022/11/02 17:33:36;;;;;;;11.30;7.60;;;;;;;15.89;56.51;99554.45;223164;1253;140508;-66
2022/11/02 17:38:39;;;;;;;15.10;8.00;;;;;;;15.86;56.67;99564.52;223895;1240;140394;-65
2022/11/02 17:43:44;;;;;;;12.20;8.00;;;;;;;15.80;56.64;99559.92;223156;1256;140081;-67
2022/11/02 17:48:47;;;;;;;18.10;8.60;;;;;;;15.75;56.78;99564.28;223175;1253;140671;-67
2022/11/02 17:53:50;;;;;;;16.00;9.30;;;;;;;15.73;56.90;99564.25;223313;1257;140184;-68
2022/11/02 17:58:54;;;;;;;14.50;8.70;;;;;;;15.73;56.97;99572.16;223890;1246;140526;-66
2022/11/02 18:03:58;;;;;;;17.10;9.60;;;;;;;15.71;57.09;99574.77;223948;1247;140277;-68
2022/11/02 18:09:10;;;;;;;19.30;10.10;;;;;;;15.70;57.13;99578.39;223805;1247;140231;-70
2022/11/02 18:14:15;;;;;;;17.60;8.90;;;;;;;15.68;57.10;99584.98;223040;1257;140661;-63
2022/11/02 18:19:18;;;;;;;19.40;10.50;;;;;;;15.67;57.38;99584.57;223101;1256;140943;-64
2022/11/02 18:24:21;;;;;;;20.40;10.90;;;;;;;15.67;57.20;99588.31;223041;1256;140697;-63
2022/11/02 18:29:24;;;;;;;21.30;11.30;;;;;;;15.64;57.21;99595.15;223329;1254;139908;-66
2022/11/02 18:34:28;;;;;;;19.90;10.50;;;;;;;15.57;57.26;99591.35;223133;1261;140803;-66
2022/11/02 18:39:31;;;;;;;19.10;10.40;;;;;;;15.54;57.48;99596.73;223112;1251;140475;-63
2022/11/02 18:44:34;;;;;;;21.00;11.40;;;;;;;15.52;57.46;99605.11;223184;1257;140548;-65
2022/11/02 18:49:37;;;;;;;18.80;11.10;;;;;;;15.49;57.52;99607.11;223611;1250;140516;-66
2022/11/02 18:54:40;;;;;;;20.50;11.50;;;;;;;15.48;57.62;99602.01;223812;1250;140508;-61
2022/11/02 18:59:43;;;;;;;20.00;11.50;;;;;;;15.44;57.80;99600.57;223189;1253;139532;-65
2022/11/02 19:04:46;;;;;;;20.60;12.20;;;;;;;15.40;57.81;99610.30;223213;1248;139585;-63
2022/11/02 19:09:49;;;;;;;28.20;16.00;;;;;;;15.41;58.13;99614.88;223079;1257;140273;-64
2022/11/02 19:14:53;;;;;;;21.40;12.20;;;;;;;15.43;58.07;99610.62;223071;1253;140904;-62
2022/11/02 19:19:56;;;;;;;21.90;12.30;;;;;;;15.39;57.90;99619.52;223155;1255;140578;-63
2022/11/02 19:25:00;;;;;;;21.40;13.30;;;;;;;15.32;57.85;99622.63;223188;1258;140618;-63
2022/11/02 19:30:03;;;;;;;19.60;12.00;;;;;;;15.27;58.15;99626.08;223818;1247;141312;-64
2022/11/02 19:35:07;;;;;;;18.90;11.90;;;;;;;15.24;58.21;99629.30;223971;1253;139853;-64
2022/11/02 19:40:10;;;;;;;23.60;13.40;;;;;;;15.21;58.13;99635.08;223232;1257;140120;-60
2022/11/02 19:45:16;;;;;;;21.30;12.50;;;;;;;15.23;58.24;99644.28;223946;1250;141018;-65
2022/11/02 19:50:19;;;;;;;142.10;87.10;;;;;;;15.24;58.26;99658.62;223179;1256;140574;-64
2022/11/02 19:55:27;;;;;;;32.90;22.10;;;;;;;15.27;58.50;99660.05;223243;1256;141106;-61
2022/11/02 20:00:32;;;;;;;23.80;13.70;;;;;;;15.28;58.38;99661.95;223155;1246;139800;-63
2022/11/02 20:05:39;;;;;;;23.30;13.20;;;;;;;15.25;58.24;99668.05;223929;1251;139390;-65
2022/11/02 20:10:42;;;;;;;22.30;13.50;;;;;;;15.20;58.06;99671.30;223129;1254;140811;-65
2022/11/02 20:15:54;;;;;;;115.20;71.70;;;;;;;15.15;58.14;99680.19;223289;1250;140690;-65
2022/11/02 20:21:08;;;;;;;25.10;13.70;;;;;;;15.10;58.23;99674.49;223363;1251;140945;-65
2022/11/02 20:26:43;;;;;;;22.80;14.00;;;;;;;15.06;58.24;99668.85;223832;1249;140149;-63
2022/11/02 20:31:50;;;;;;;22.80;13.80;;;;;;;14.97;58.33;99670.54;223766;1247;152532;-63
2022/11/02 20:36:59;;;;;;;27.80;13.00;;;;;;;14.90;58.46;99678.73;223100;1257;141461;-62
2022/11/02 20:42:03;;;;;;;22.90;13.00;;;;;;;14.84;58.35;99682.38;223254;1257;140678;-62
2022/11/02 20:47:09;;;;;;;20.50;13.80;;;;;;;14.78;58.47;99679.89;223139;1250;139604;-63
2022/11/02 20:52:17;;;;;;;23.60;13.90;;;;;;;14.78;58.70;99680.48;223774;1247;139969;-64
2022/11/02 20:57:23;;;;;;;26.10;13.30;;;;;;;14.77;58.69;99684.63;223911;1248;140115;-61
2022/11/02 21:02:33;;;;;;;27.00;14.80;;;;;;;14.72;58.59;99680.16;222960;1259;141089;-61
2022/11/02 21:07:36;;;;;;;23.10;14.00;;;;;;;14.68;58.70;99689.17;223839;1247;142067;-64
2022/11/02 21:18:01;;;;;;;22.70;13.80;;;;;;;14.58;58.56;99690.40;223964;1244;140589;-65
2022/11/02 21:23:05;;;;;;;24.70;13.10;;;;;;;14.56;58.69;99691.61;223418;1258;142613;-67
2022/11/02 21:28:08;;;;;;;25.60;13.30;;;;;;;14.54;58.71;99679.95;223993;1247;139530;-62
2022/11/02 21:33:11;;;;;;;20.40;13.20;;;;;;;14.51;58.74;99679.30;223944;1239;140270;-63
2022/11/02 21:38:14;;;;;;;24.70;13.70;;;;;;;14.44;58.46;99678.14;223981;1254;140102;-63
2022/11/02 21:43:17;;;;;;;22.90;12.80;;;;;;;14.40;58.86;99679.95;223249;1258;139929;-66
2022/11/02 21:48:21;;;;;;;24.20;14.30;;;;;;;14.34;58.74;99690.77;223320;1255;139791;-63
2022/11/02 21:53:25;;;;;;;25.90;13.70;;;;;;;14.31;58.72;99691.15;223983;1250;140519;-64
2022/11/02 21:58:28;;;;;;;28.60;13.90;;;;;;;14.31;58.77;99694.36;223182;1257;140330;-65
2022/11/02 22:03:31;;;;;;;24.50;13.40;;;;;;;14.30;58.71;99692.80;223203;1254;139617;-63
2022/11/02 22:08:40;;;;;;;21.30;13.40;;;;;;;14.25;58.74;99700.80;223229;1257;140846;-63
2022/11/02 22:13:43;;;;;;;23.50;13.30;;;;;;;14.19;58.81;99701.22;223293;1256;139345;-64
2022/11/02 22:18:48;;;;;;;22.90;14.20;;;;;;;14.16;58.81;99700.67;223390;1256;139859;-67
2022/11/02 22:24:04;;;;;;;26.10;14.50;;;;;;;14.12;58.79;99706.33;223352;1250;140338;-63
2022/11/02 22:29:07;;;;;;;31.70;15.20;;;;;;;14.04;58.87;99710.43;223184;1257;141069;-62
2022/11/02 22:34:12;;;;;;;24.30;14.40;;;;;;;13.95;58.86;99708.50;223885;1244;140104;-64
2022/11/02 22:39:15;;;;;;;26.60;15.30;;;;;;;13.94;58.99;99710.67;223324;1250;140066;-64
2022/11/02 22:44:21;;;;;;;24.40;14.50;;;;;;;13.89;58.96;99706.20;223453;1257;139523;-64
2022/11/02 22:49:24;;;;;;;;;;;;;;;13.84;59.19;99703.86;223797;1256;140235;-65
2022/11/02 22:54:27;;;;;;;27.80;15.50;;;;;;;13.81;59.41;99698.55;223333;1256;125633;-60
2022/11/02 22:59:30;;;;;;;27.00;15.40;;;;;;;13.75;59.06;99699.46;224069;1247;139696;-63
2022/11/02 23:04:33;;;;;;;25.80;15.00;;;;;;;13.69;59.41;99705.35;223963;1244;140134;-60
2022/11/02 23:09:36;;;;;;;23.50;14.60;;;;;;;13.66;59.57;99712.67;223164;1255;140067;-64
2022/11/02 23:14:39;;;;;;;27.90;16.10;;;;;;;13.68;59.48;99716.34;223861;1250;141147;-62
2022/11/02 23:19:43;;;;;;;24.80;14.40;;;;;;;13.71;59.39;99723.05;223119;1257;141439;-64
2022/11/02 23:40:54;;;;;;;31.10;17.90;;;;;;;13.61;59.58;99732.27;223134;1258;139937;-66
2022/11/02 23:45:57;;;;;;;26.50;16.80;;;;;;;13.58;59.70;99732.46;223112;1257;139983;-64
